sensor_id;sensor_type;location;lat;lon;timestamp;P1;durP1;ratioP1;P2;durP2;ratioP2
57317;SDS011;43157;50.982;18.132;2022-08-19T00:00:47;11.30;;;6.40;;
57317;SDS011;43157;50.982;18.132;2022-08-19T00:03:16;12.30;;;5.90;;
57317;SDS011;43157;50.982;18.132;2022-08-19T00:05:41;12.90;;;5.90;;
57317;SDS011;43157;50.982;18.132;2022-08-19T00:08:07;14.20;;;6.80;;
57317;SDS011;43157;50.982;18.132;2022-08-19T00:10:33;12.30;;;6.70;;
57317;SDS011;43157;50.982;18.132;2022-08-19T00:12:59;14.10;;;6.80;;
57317;SDS011;43157;50.982;18.132;2022-08-19T00:15:25;14.00;;;6.70;;
57317;SDS011;43157;50.982;18.132;2022-08-19T00:17:50;14.10;;;6.50;;
57317;SDS011;43157;50.982;18.132;2022-08-19T00:20:17;13.60;;;7.00;;
57317;SDS011;43157;50.982;18.132;2022-08-19T00:22:44;15.10;;;6.70;;
57317;SDS011;43157;50.982;18.132;2022-08-19T00:25:11;13.00;;;6.60;;
57317;SDS011;43157;50.982;18.132;2022-08-19T00:27:37;14.40;;;6.80;;
57317;SDS011;43157;50.982;18.132;2022-08-19T00:30:03;14.80;;;7.50;;
57317;SDS011;43157;50.982;18.132;2022-08-19T00:32:30;12.90;;;6.90;;
57317;SDS011;43157;50.982;18.132;2022-08-19T00:34:56;13.70;;;6.50;;
57317;SDS011;43157;50.982;18.132;2022-08-19T00:37:23;13.50;;;7.30;;
57317;SDS011;43157;50.982;18.132;2022-08-19T00:39:51;18.60;;;7.70;;
57317;SDS011;43157;50.982;18.132;2022-08-19T00:42:18;14.50;;;7.60;;
57317;SDS011;43157;50.982;18.132;2022-08-19T00:44:45;14.50;;;7.40;;
57317;SDS011;43157;50.982;18.132;2022-08-19T00:47:10;14.60;;;7.30;;
57317;SDS011;43157;50.982;18.132;2022-08-19T00:49:38;14.90;;;8.10;;
57317;SDS011;43157;50.982;18.132;2022-08-19T00:52:08;13.50;;;7.50;;
57317;SDS011;43157;50.982;18.132;2022-08-19T00:54:35;13.40;;;7.90;;
57317;SDS011;43157;50.982;18.132;2022-08-19T00:57:03;15.70;;;7.60;;
57317;SDS011;43157;50.982;18.132;2022-08-19T00:59:31;16.70;;;7.20;;
57317;SDS011;43157;50.982;18.132;2022-08-19T01:02:01;16.00;;;8.20;;
57317;SDS011;43157;50.982;18.132;2022-08-19T01:04:27;15.10;;;7.00;;
57317;SDS011;43157;50.982;18.132;2022-08-19T01:06:53;14.70;;;8.20;;
57317;SDS011;43157;50.982;18.132;2022-08-19T01:09:18;14.50;;;8.20;;
57317;SDS011;43157;50.982;18.132;2022-08-19T01:11:45;14.90;;;7.60;;
57317;SDS011;43157;50.982;18.132;2022-08-19T01:14:11;15.90;;;8.20;;
57317;SDS011;43157;50.982;18.132;2022-08-19T01:16:37;13.70;;;8.10;;
57317;SDS011;43157;50.982;18.132;2022-08-19T01:19:08;14.30;;;7.70;;
57317;SDS011;43157;50.982;18.132;2022-08-19T01:21:40;15.70;;;7.60;;
57317;SDS011;43157;50.982;18.132;2022-08-19T01:24:09;13.10;;;8.00;;
57317;SDS011;43157;50.982;18.132;2022-08-19T01:26:38;14.40;;;8.20;;
57317;SDS011;43157;50.982;18.132;2022-08-19T01:29:07;16.60;;;7.60;;
57317;SDS011;43157;50.982;18.132;2022-08-19T01:31:33;15.60;;;8.20;;
57317;SDS011;43157;50.982;18.132;2022-08-19T01:34:00;18.70;;;8.30;;
57317;SDS011;43157;50.982;18.132;2022-08-19T01:38:57;15.50;;;8.70;;
57317;SDS011;43157;50.982;18.132;2022-08-19T01:41:25;17.40;;;9.50;;
57317;SDS011;43157;50.982;18.132;2022-08-19T01:43:51;15.30;;;8.20;;
57317;SDS011;43157;50.982;18.132;2022-08-19T01:46:17;14.50;;;8.60;;
57317;SDS011;43157;50.982;18.132;2022-08-19T01:48:44;15.10;;;8.60;;
57317;SDS011;43157;50.982;18.132;2022-08-19T01:51:12;14.20;;;8.80;;
57317;SDS011;43157;50.982;18.132;2022-08-19T01:53:38;15.60;;;9.40;;
57317;SDS011;43157;50.982;18.132;2022-08-19T01:56:05;15.20;;;8.70;;
57317;SDS011;43157;50.982;18.132;2022-08-19T01:58:33;16.00;;;9.00;;
57317;SDS011;43157;50.982;18.132;2022-08-19T02:01:03;15.60;;;8.60;;
57317;SDS011;43157;50.982;18.132;2022-08-19T02:03:30;16.20;;;8.70;;
57317;SDS011;43157;50.982;18.132;2022-08-19T02:05:56;17.20;;;9.20;;
57317;SDS011;43157;50.982;18.132;2022-08-19T02:08:28;15.50;;;8.60;;
57317;SDS011;43157;50.982;18.132;2022-08-19T02:10:55;15.20;;;8.80;;
57317;SDS011;43157;50.982;18.132;2022-08-19T02:13:21;18.10;;;8.80;;
57317;SDS011;43157;50.982;18.132;2022-08-19T02:15:47;15.70;;;9.00;;
57317;SDS011;43157;50.982;18.132;2022-08-19T02:18:13;14.70;;;9.20;;
57317;SDS011;43157;50.982;18.132;2022-08-19T02:20:40;17.40;;;9.10;;
57317;SDS011;43157;50.982;18.132;2022-08-19T02:23:07;16.40;;;8.80;;
57317;SDS011;43157;50.982;18.132;2022-08-19T02:25:33;15.80;;;9.40;;
57317;SDS011;43157;50.982;18.132;2022-08-19T02:27:59;16.10;;;9.00;;
57317;SDS011;43157;50.982;18.132;2022-08-19T02:30:25;15.30;;;8.50;;
57317;SDS011;43157;50.982;18.132;2022-08-19T02:32:51;16.40;;;9.00;;
57317;SDS011;43157;50.982;18.132;2022-08-19T02:35:17;17.70;;;9.70;;
57317;SDS011;43157;50.982;18.132;2022-08-19T02:37:43;16.20;;;9.40;;
57317;SDS011;43157;50.982;18.132;2022-08-19T02:40:28;14.50;;;9.20;;
57317;SDS011;43157;50.982;18.132;2022-08-19T02:43:01;18.00;;;9.70;;
57317;SDS011;43157;50.982;18.132;2022-08-19T02:45:34;19.40;;;10.40;;
57317;SDS011;43157;50.982;18.132;2022-08-19T02:48:02;17.30;;;9.40;;
57317;SDS011;43157;50.982;18.132;2022-08-19T02:50:28;16.60;;;10.00;;
57317;SDS011;43157;50.982;18.132;2022-08-19T02:52:54;15.70;;;10.00;;
57317;SDS011;43157;50.982;18.132;2022-08-19T02:55:20;16.80;;;10.50;;
57317;SDS011;43157;50.982;18.132;2022-08-19T02:57:46;17.10;;;9.80;;
57317;SDS011;43157;50.982;18.132;2022-08-19T03:00:12;17.70;;;9.60;;
57317;SDS011;43157;50.982;18.132;2022-08-19T03:02:38;18.10;;;10.40;;
57317;SDS011;43157;50.982;18.132;2022-08-19T03:05:05;17.90;;;10.10;;
57317;SDS011;43157;50.982;18.132;2022-08-19T03:07:32;18.40;;;9.90;;
57317;SDS011;43157;50.982;18.132;2022-08-19T03:09:58;20.00;;;10.00;;
57317;SDS011;43157;50.982;18.132;2022-08-19T03:12:23;17.70;;;10.20;;
57317;SDS011;43157;50.982;18.132;2022-08-19T03:14:49;17.30;;;9.90;;
57317;SDS011;43157;50.982;18.132;2022-08-19T03:17:16;15.60;;;9.70;;
57317;SDS011;43157;50.982;18.132;2022-08-19T03:19:41;21.70;;;9.80;;
57317;SDS011;43157;50.982;18.132;2022-08-19T03:22:08;20.20;;;10.90;;
57317;SDS011;43157;50.982;18.132;2022-08-19T03:24:34;19.30;;;10.60;;
57317;SDS011;43157;50.982;18.132;2022-08-19T03:27:00;18.20;;;10.30;;
57317;SDS011;43157;50.982;18.132;2022-08-19T03:29:27;19.50;;;9.70;;
57317;SDS011;43157;50.982;18.132;2022-08-19T03:31:54;17.80;;;10.50;;
57317;SDS011;43157;50.982;18.132;2022-08-19T03:34:21;17.30;;;10.10;;
57317;SDS011;43157;50.982;18.132;2022-08-19T03:36:52;17.20;;;9.40;;
57317;SDS011;43157;50.982;18.132;2022-08-19T03:39:20;17.80;;;9.90;;
57317;SDS011;43157;50.982;18.132;2022-08-19T03:41:47;19.50;;;10.70;;
57317;SDS011;43157;50.982;18.132;2022-08-19T03:44:20;17.00;;;10.10;;
57317;SDS011;43157;50.982;18.132;2022-08-19T03:46:51;19.70;;;11.10;;
57317;SDS011;43157;50.982;18.132;2022-08-19T03:49:20;18.40;;;10.50;;
57317;SDS011;43157;50.982;18.132;2022-08-19T03:51:47;18.20;;;10.10;;
57317;SDS011;43157;50.982;18.132;2022-08-19T03:54:15;17.00;;;10.40;;
57317;SDS011;43157;50.982;18.132;2022-08-19T03:56:42;19.90;;;10.30;;
57317;SDS011;43157;50.982;18.132;2022-08-19T03:59:10;19.50;;;10.80;;
57317;SDS011;43157;50.982;18.132;2022-08-19T04:01:39;16.90;;;10.60;;
57317;SDS011;43157;50.982;18.132;2022-08-19T04:04:04;18.60;;;10.90;;
57317;SDS011;43157;50.982;18.132;2022-08-19T04:06:32;17.00;;;9.90;;
57317;SDS011;43157;50.982;18.132;2022-08-19T04:09:00;17.00;;;10.30;;
57317;SDS011;43157;50.982;18.132;2022-08-19T04:11:29;16.70;;;10.50;;
57317;SDS011;43157;50.982;18.132;2022-08-19T04:14:07;19.60;;;10.60;;
57317;SDS011;43157;50.982;18.132;2022-08-19T04:16:33;17.60;;;10.80;;
57317;SDS011;43157;50.982;18.132;2022-08-19T04:19:00;18.50;;;10.80;;
57317;SDS011;43157;50.982;18.132;2022-08-19T04:21:27;19.30;;;11.00;;
57317;SDS011;43157;50.982;18.132;2022-08-19T04:23:53;19.20;;;10.90;;
57317;SDS011;43157;50.982;18.132;2022-08-19T04:26:21;18.70;;;11.10;;
57317;SDS011;43157;50.982;18.132;2022-08-19T04:28:49;17.70;;;9.40;;
57317;SDS011;43157;50.982;18.132;2022-08-19T04:31:16;18.70;;;10.00;;
57317;SDS011;43157;50.982;18.132;2022-08-19T04:33:47;16.60;;;10.00;;
57317;SDS011;43157;50.982;18.132;2022-08-19T04:36:20;16.60;;;9.60;;
57317;SDS011;43157;50.982;18.132;2022-08-19T04:38:48;15.60;;;10.00;;
57317;SDS011;43157;50.982;18.132;2022-08-19T04:41:15;17.10;;;10.20;;
57317;SDS011;43157;50.982;18.132;2022-08-19T04:44:00;20.40;;;10.70;;
57317;SDS011;43157;50.982;18.132;2022-08-19T04:46:27;17.10;;;10.40;;
57317;SDS011;43157;50.982;18.132;2022-08-19T04:48:58;17.10;;;9.90;;
57317;SDS011;43157;50.982;18.132;2022-08-19T04:51:24;18.00;;;10.00;;
57317;SDS011;43157;50.982;18.132;2022-08-19T04:53:50;15.40;;;9.50;;
57317;SDS011;43157;50.982;18.132;2022-08-19T04:56:18;17.00;;;9.80;;
57317;SDS011;43157;50.982;18.132;2022-08-19T04:58:52;16.90;;;10.40;;
57317;SDS011;43157;50.982;18.132;2022-08-19T05:01:28;15.00;;;9.50;;
57317;SDS011;43157;50.982;18.132;2022-08-19T05:03:55;17.90;;;10.70;;
57317;SDS011;43157;50.982;18.132;2022-08-19T05:06:22;17.40;;;10.20;;
57317;SDS011;43157;50.982;18.132;2022-08-19T05:08:48;17.30;;;10.50;;
57317;SDS011;43157;50.982;18.132;2022-08-19T05:11:16;17.70;;;10.30;;
57317;SDS011;43157;50.982;18.132;2022-08-19T05:13:43;18.40;;;9.60;;
57317;SDS011;43157;50.982;18.132;2022-08-19T05:16:11;19.50;;;9.50;;
57317;SDS011;43157;50.982;18.132;2022-08-19T05:18:38;18.40;;;10.00;;
57317;SDS011;43157;50.982;18.132;2022-08-19T05:21:23;15.40;;;9.30;;
57317;SDS011;43157;50.982;18.132;2022-08-19T05:24:09;16.80;;;9.00;;
57317;SDS011;43157;50.982;18.132;2022-08-19T05:26:36;15.50;;;9.10;;
57317;SDS011;43157;50.982;18.132;2022-08-19T05:29:02;19.80;;;9.70;;
57317;SDS011;43157;50.982;18.132;2022-08-19T05:31:29;17.10;;;9.30;;
57317;SDS011;43157;50.982;18.132;2022-08-19T05:33:55;18.10;;;9.80;;
57317;SDS011;43157;50.982;18.132;2022-08-19T05:36:27;14.60;;;8.80;;
57317;SDS011;43157;50.982;18.132;2022-08-19T05:38:54;16.90;;;9.00;;
57317;SDS011;43157;50.982;18.132;2022-08-19T05:41:20;15.40;;;9.20;;
57317;SDS011;43157;50.982;18.132;2022-08-19T05:43:55;17.90;;;9.50;;
57317;SDS011;43157;50.982;18.132;2022-08-19T05:46:22;20.70;;;8.80;;
57317;SDS011;43157;50.982;18.132;2022-08-19T05:48:51;16.10;;;9.20;;
57317;SDS011;43157;50.982;18.132;2022-08-19T05:51:16;16.50;;;8.50;;
57317;SDS011;43157;50.982;18.132;2022-08-19T05:53:42;15.00;;;9.00;;
57317;SDS011;43157;50.982;18.132;2022-08-19T05:56:12;16.00;;;8.30;;
57317;SDS011;43157;50.982;18.132;2022-08-19T05:58:41;17.00;;;8.80;;
57317;SDS011;43157;50.982;18.132;2022-08-19T06:01:12;14.90;;;8.50;;
57317;SDS011;43157;50.982;18.132;2022-08-19T06:03:40;14.80;;;8.70;;
57317;SDS011;43157;50.982;18.132;2022-08-19T06:06:09;14.40;;;8.90;;
57317;SDS011;43157;50.982;18.132;2022-08-19T06:08:37;16.60;;;8.70;;
57317;SDS011;43157;50.982;18.132;2022-08-19T06:13:39;15.60;;;8.70;;
57317;SDS011;43157;50.982;18.132;2022-08-19T06:16:05;16.10;;;8.10;;
57317;SDS011;43157;50.982;18.132;2022-08-19T06:18:31;15.30;;;8.20;;
57317;SDS011;43157;50.982;18.132;2022-08-19T06:20:58;13.50;;;7.70;;
57317;SDS011;43157;50.982;18.132;2022-08-19T06:23:24;14.20;;;7.30;;
57317;SDS011;43157;50.982;18.132;2022-08-19T06:25:51;12.70;;;7.10;;
57317;SDS011;43157;50.982;18.132;2022-08-19T06:28:16;16.30;;;8.10;;
57317;SDS011;43157;50.982;18.132;2022-08-19T06:30:42;15.70;;;8.10;;
57317;SDS011;43157;50.982;18.132;2022-08-19T06:33:08;16.80;;;7.70;;
57317;SDS011;43157;50.982;18.132;2022-08-19T06:35:38;15.20;;;7.50;;
57317;SDS011;43157;50.982;18.132;2022-08-19T06:38:04;17.50;;;7.20;;
57317;SDS011;43157;50.982;18.132;2022-08-19T06:40:30;14.50;;;7.30;;
57317;SDS011;43157;50.982;18.132;2022-08-19T06:42:56;19.30;;;7.60;;
57317;SDS011;43157;50.982;18.132;2022-08-19T06:45:24;13.10;;;7.40;;
57317;SDS011;43157;50.982;18.132;2022-08-19T06:47:51;14.20;;;6.80;;
57317;SDS011;43157;50.982;18.132;2022-08-19T06:50:24;11.80;;;7.20;;
57317;SDS011;43157;50.982;18.132;2022-08-19T06:52:50;15.70;;;7.60;;
57317;SDS011;43157;50.982;18.132;2022-08-19T06:55:15;15.80;;;7.10;;
57317;SDS011;43157;50.982;18.132;2022-08-19T06:57:41;15.10;;;7.10;;
57317;SDS011;43157;50.982;18.132;2022-08-19T07:00:08;12.70;;;6.50;;
57317;SDS011;43157;50.982;18.132;2022-08-19T07:02:42;13.70;;;6.60;;
57317;SDS011;43157;50.982;18.132;2022-08-19T07:05:08;12.20;;;6.80;;
57317;SDS011;43157;50.982;18.132;2022-08-19T07:07:34;19.80;;;7.00;;
57317;SDS011;43157;50.982;18.132;2022-08-19T07:10:01;12.90;;;6.50;;
57317;SDS011;43157;50.982;18.132;2022-08-19T07:12:28;12.30;;;6.70;;
57317;SDS011;43157;50.982;18.132;2022-08-19T07:15:00;13.50;;;7.10;;
57317;SDS011;43157;50.982;18.132;2022-08-19T07:17:25;12.90;;;6.70;;
57317;SDS011;43157;50.982;18.132;2022-08-19T07:19:52;14.10;;;7.10;;
57317;SDS011;43157;50.982;18.132;2022-08-19T07:22:19;14.70;;;6.40;;
57317;SDS011;43157;50.982;18.132;2022-08-19T07:24:47;16.20;;;6.80;;
57317;SDS011;43157;50.982;18.132;2022-08-19T07:27:14;13.60;;;6.00;;
57317;SDS011;43157;50.982;18.132;2022-08-19T07:29:40;12.00;;;5.80;;
57317;SDS011;43157;50.982;18.132;2022-08-19T07:32:06;14.10;;;6.20;;
57317;SDS011;43157;50.982;18.132;2022-08-19T07:34:32;15.60;;;6.50;;
57317;SDS011;43157;50.982;18.132;2022-08-19T07:37:03;14.30;;;6.00;;
57317;SDS011;43157;50.982;18.132;2022-08-19T07:39:30;15.30;;;6.10;;
57317;SDS011;43157;50.982;18.132;2022-08-19T07:41:58;10.90;;;5.40;;
57317;SDS011;43157;50.982;18.132;2022-08-19T07:44:26;12.00;;;5.60;;
57317;SDS011;43157;50.982;18.132;2022-08-19T07:46:53;16.50;;;6.30;;
57317;SDS011;43157;50.982;18.132;2022-08-19T07:49:21;13.00;;;5.80;;
57317;SDS011;43157;50.982;18.132;2022-08-19T07:51:50;15.70;;;5.70;;
57317;SDS011;43157;50.982;18.132;2022-08-19T07:54:18;14.40;;;5.70;;
57317;SDS011;43157;50.982;18.132;2022-08-19T07:56:44;14.60;;;6.00;;
57317;SDS011;43157;50.982;18.132;2022-08-19T07:59:11;12.10;;;5.60;;
57317;SDS011;43157;50.982;18.132;2022-08-19T08:01:37;12.30;;;5.60;;
57317;SDS011;43157;50.982;18.132;2022-08-19T08:04:05;13.80;;;6.00;;
57317;SDS011;43157;50.982;18.132;2022-08-19T08:06:54;11.10;;;5.30;;
57317;SDS011;43157;50.982;18.132;2022-08-19T08:09:40;14.30;;;5.70;;
57317;SDS011;43157;50.982;18.132;2022-08-19T08:12:08;15.50;;;5.80;;
57317;SDS011;43157;50.982;18.132;2022-08-19T08:14:42;15.00;;;5.80;;
57317;SDS011;43157;50.982;18.132;2022-08-19T08:17:11;17.50;;;5.90;;
57317;SDS011;43157;50.982;18.132;2022-08-19T08:19:39;14.20;;;5.40;;
57317;SDS011;43157;50.982;18.132;2022-08-19T08:22:06;16.60;;;6.30;;
57317;SDS011;43157;50.982;18.132;2022-08-19T08:24:33;16.10;;;6.10;;
57317;SDS011;43157;50.982;18.132;2022-08-19T08:27:01;15.60;;;5.70;;
57317;SDS011;43157;50.982;18.132;2022-08-19T08:29:27;16.20;;;5.80;;
57317;SDS011;43157;50.982;18.132;2022-08-19T08:31:54;20.20;;;6.10;;
57317;SDS011;43157;50.982;18.132;2022-08-19T08:34:21;15.90;;;5.80;;
57317;SDS011;43157;50.982;18.132;2022-08-19T08:36:47;15.10;;;5.90;;
57317;SDS011;43157;50.982;18.132;2022-08-19T08:39:15;12.00;;;5.60;;
57317;SDS011;43157;50.982;18.132;2022-08-19T08:47:03;17.90;;;5.60;;
57317;SDS011;43157;50.982;18.132;2022-08-19T08:49:37;15.10;;;5.60;;
57317;SDS011;43157;50.982;18.132;2022-08-19T08:52:07;16.00;;;5.40;;
57317;SDS011;43157;50.982;18.132;2022-08-19T08:54:39;21.10;;;9.60;;
57317;SDS011;43157;50.982;18.132;2022-08-19T08:57:09;21.80;;;6.70;;
57317;SDS011;43157;50.982;18.132;2022-08-19T08:59:40;12.60;;;4.80;;
57317;SDS011;43157;50.982;18.132;2022-08-19T09:02:07;21.20;;;9.30;;
57317;SDS011;43157;50.982;18.132;2022-08-19T09:04:34;29.50;;;13.20;;
57317;SDS011;43157;50.982;18.132;2022-08-19T09:09:31;14.10;;;4.20;;
57317;SDS011;43157;50.982;18.132;2022-08-19T09:17:23;15.70;;;4.40;;
57317;SDS011;43157;50.982;18.132;2022-08-19T09:20:19;17.30;;;4.90;;
57317;SDS011;43157;50.982;18.132;2022-08-19T09:22:44;17.50;;;5.20;;
57317;SDS011;43157;50.982;18.132;2022-08-19T09:25:16;14.20;;;5.40;;
57317;SDS011;43157;50.982;18.132;2022-08-19T09:27:44;16.60;;;5.10;;
57317;SDS011;43157;50.982;18.132;2022-08-19T09:30:12;14.10;;;4.40;;
57317;SDS011;43157;50.982;18.132;2022-08-19T09:32:58;17.40;;;5.00;;
57317;SDS011;43157;50.982;18.132;2022-08-19T09:35:25;14.40;;;4.30;;
57317;SDS011;43157;50.982;18.132;2022-08-19T09:37:54;14.50;;;4.70;;
57317;SDS011;43157;50.982;18.132;2022-08-19T09:40:22;15.40;;;5.00;;
57317;SDS011;43157;50.982;18.132;2022-08-19T09:42:47;14.60;;;5.30;;
57317;SDS011;43157;50.982;18.132;2022-08-19T09:45:14;13.00;;;4.60;;
57317;SDS011;43157;50.982;18.132;2022-08-19T09:47:41;16.60;;;5.70;;
57317;SDS011;43157;50.982;18.132;2022-08-19T09:50:07;22.40;;;8.10;;
57317;SDS011;43157;50.982;18.132;2022-08-19T09:52:34;13.00;;;5.70;;
57317;SDS011;43157;50.982;18.132;2022-08-19T09:55:11;21.80;;;6.20;;
57317;SDS011;43157;50.982;18.132;2022-08-19T09:57:38;18.20;;;5.90;;
57317;SDS011;43157;50.982;18.132;2022-08-19T10:00:04;17.10;;;4.90;;
57317;SDS011;43157;50.982;18.132;2022-08-19T10:02:34;16.90;;;5.10;;
57317;SDS011;43157;50.982;18.132;2022-08-19T10:05:00;16.90;;;5.50;;
57317;SDS011;43157;50.982;18.132;2022-08-19T10:07:45;15.00;;;4.90;;
57317;SDS011;43157;50.982;18.132;2022-08-19T10:10:11;12.30;;;4.70;;
57317;SDS011;43157;50.982;18.132;2022-08-19T10:12:38;14.00;;;4.30;;
57317;SDS011;43157;50.982;18.132;2022-08-19T10:15:04;14.30;;;4.90;;
57317;SDS011;43157;50.982;18.132;2022-08-19T10:17:31;18.20;;;4.60;;
57317;SDS011;43157;50.982;18.132;2022-08-19T10:19:59;13.60;;;4.80;;
57317;SDS011;43157;50.982;18.132;2022-08-19T10:22:24;10.60;;;3.70;;
57317;SDS011;43157;50.982;18.132;2022-08-19T10:24:50;15.30;;;4.70;;
57317;SDS011;43157;50.982;18.132;2022-08-19T10:27:17;11.40;;;4.20;;
57317;SDS011;43157;50.982;18.132;2022-08-19T10:29:42;15.50;;;4.60;;
57317;SDS011;43157;50.982;18.132;2022-08-19T10:32:09;15.10;;;4.50;;
57317;SDS011;43157;50.982;18.132;2022-08-19T10:34:36;12.20;;;4.10;;
57317;SDS011;43157;50.982;18.132;2022-08-19T10:37:03;13.20;;;4.80;;
57317;SDS011;43157;50.982;18.132;2022-08-19T10:39:34;19.10;;;4.80;;
57317;SDS011;43157;50.982;18.132;2022-08-19T10:42:08;14.60;;;4.70;;
57317;SDS011;43157;50.982;18.132;2022-08-19T10:44:35;16.60;;;3.90;;
57317;SDS011;43157;50.982;18.132;2022-08-19T10:47:02;17.20;;;4.70;;
57317;SDS011;43157;50.982;18.132;2022-08-19T10:49:29;14.90;;;5.10;;
57317;SDS011;43157;50.982;18.132;2022-08-19T10:51:55;13.10;;;5.00;;
57317;SDS011;43157;50.982;18.132;2022-08-19T10:54:40;14.20;;;4.20;;
57317;SDS011;43157;50.982;18.132;2022-08-19T10:57:25;15.20;;;4.90;;
57317;SDS011;43157;50.982;18.132;2022-08-19T10:59:55;16.20;;;5.00;;
57317;SDS011;43157;50.982;18.132;2022-08-19T11:02:21;11.60;;;4.80;;
57317;SDS011;43157;50.982;18.132;2022-08-19T11:04:47;17.50;;;6.10;;
57317;SDS011;43157;50.982;18.132;2022-08-19T11:07:15;16.20;;;5.70;;
57317;SDS011;43157;50.982;18.132;2022-08-19T11:09:42;14.30;;;6.30;;
57317;SDS011;43157;50.982;18.132;2022-08-19T11:12:08;13.80;;;5.30;;
57317;SDS011;43157;50.982;18.132;2022-08-19T11:14:35;14.00;;;5.40;;
57317;SDS011;43157;50.982;18.132;2022-08-19T11:17:02;16.80;;;5.60;;
57317;SDS011;43157;50.982;18.132;2022-08-19T11:19:29;15.60;;;5.40;;
57317;SDS011;43157;50.982;18.132;2022-08-19T11:21:56;17.40;;;6.10;;
57317;SDS011;43157;50.982;18.132;2022-08-19T11:24:23;14.60;;;5.80;;
57317;SDS011;43157;50.982;18.132;2022-08-19T11:26:50;13.80;;;5.40;;
57317;SDS011;43157;50.982;18.132;2022-08-19T11:29:19;15.30;;;5.10;;
57317;SDS011;43157;50.982;18.132;2022-08-19T11:31:47;15.00;;;5.10;;
57317;SDS011;43157;50.982;18.132;2022-08-19T11:34:18;13.30;;;5.40;;
57317;SDS011;43157;50.982;18.132;2022-08-19T11:36:46;14.20;;;5.20;;
57317;SDS011;43157;50.982;18.132;2022-08-19T11:39:14;16.90;;;5.60;;
57317;SDS011;43157;50.982;18.132;2022-08-19T11:41:41;13.70;;;5.30;;
57317;SDS011;43157;50.982;18.132;2022-08-19T11:44:06;13.20;;;5.30;;
57317;SDS011;43157;50.982;18.132;2022-08-19T11:46:34;19.10;;;5.70;;
57317;SDS011;43157;50.982;18.132;2022-08-19T11:49:01;21.60;;;6.40;;
57317;SDS011;43157;50.982;18.132;2022-08-19T11:51:28;17.40;;;5.80;;
57317;SDS011;43157;50.982;18.132;2022-08-19T11:53:55;16.00;;;6.10;;
57317;SDS011;43157;50.982;18.132;2022-08-19T11:56:23;13.70;;;5.30;;
57317;SDS011;43157;50.982;18.132;2022-08-19T11:58:49;10.30;;;5.20;;
57317;SDS011;43157;50.982;18.132;2022-08-19T12:01:17;15.90;;;5.40;;
57317;SDS011;43157;50.982;18.132;2022-08-19T12:03:45;13.00;;;5.20;;
57317;SDS011;43157;50.982;18.132;2022-08-19T12:06:13;18.40;;;6.40;;
57317;SDS011;43157;50.982;18.132;2022-08-19T12:08:42;14.00;;;6.60;;
57317;SDS011;43157;50.982;18.132;2022-08-19T12:11:09;15.90;;;6.40;;
57317;SDS011;43157;50.982;18.132;2022-08-19T12:13:37;15.40;;;6.20;;
57317;SDS011;43157;50.982;18.132;2022-08-19T12:16:08;16.50;;;5.50;;
57317;SDS011;43157;50.982;18.132;2022-08-19T12:18:42;17.90;;;5.80;;
57317;SDS011;43157;50.982;18.132;2022-08-19T12:21:17;15.60;;;6.50;;
57317;SDS011;43157;50.982;18.132;2022-08-19T12:23:47;18.60;;;5.70;;
57317;SDS011;43157;50.982;18.132;2022-08-19T12:26:17;13.80;;;6.00;;
57317;SDS011;43157;50.982;18.132;2022-08-19T12:28:43;14.80;;;5.80;;
57317;SDS011;43157;50.982;18.132;2022-08-19T12:31:09;16.80;;;5.70;;
57317;SDS011;43157;50.982;18.132;2022-08-19T12:33:38;12.30;;;5.70;;
57317;SDS011;43157;50.982;18.132;2022-08-19T12:36:05;13.70;;;5.70;;
57317;SDS011;43157;50.982;18.132;2022-08-19T12:38:32;15.30;;;5.50;;
57317;SDS011;43157;50.982;18.132;2022-08-19T12:41:01;16.90;;;6.30;;
57317;SDS011;43157;50.982;18.132;2022-08-19T12:43:32;13.50;;;6.30;;
57317;SDS011;43157;50.982;18.132;2022-08-19T12:46:01;12.90;;;5.70;;
57317;SDS011;43157;50.982;18.132;2022-08-19T12:48:29;11.30;;;5.40;;
57317;SDS011;43157;50.982;18.132;2022-08-19T12:50:55;13.60;;;5.70;;
57317;SDS011;43157;50.982;18.132;2022-08-19T12:53:22;20.50;;;6.20;;
57317;SDS011;43157;50.982;18.132;2022-08-19T12:55:53;17.40;;;5.60;;
57317;SDS011;43157;50.982;18.132;2022-08-19T12:58:21;15.70;;;5.30;;
57317;SDS011;43157;50.982;18.132;2022-08-19T13:00:48;17.50;;;6.20;;
57317;SDS011;43157;50.982;18.132;2022-08-19T13:03:14;17.80;;;5.70;;
57317;SDS011;43157;50.982;18.132;2022-08-19T13:05:40;17.90;;;6.60;;
57317;SDS011;43157;50.982;18.132;2022-08-19T13:08:06;14.10;;;5.90;;
57317;SDS011;43157;50.982;18.132;2022-08-19T13:10:32;13.60;;;5.70;;
57317;SDS011;43157;50.982;18.132;2022-08-19T13:13:00;17.00;;;5.70;;
57317;SDS011;43157;50.982;18.132;2022-08-19T13:15:36;13.80;;;5.70;;
57317;SDS011;43157;50.982;18.132;2022-08-19T13:18:05;11.50;;;5.70;;
57317;SDS011;43157;50.982;18.132;2022-08-19T13:20:32;12.50;;;5.70;;
57317;SDS011;43157;50.982;18.132;2022-08-19T13:22:58;14.00;;;6.30;;
57317;SDS011;43157;50.982;18.132;2022-08-19T13:25:24;19.30;;;6.20;;
57317;SDS011;43157;50.982;18.132;2022-08-19T13:27:50;10.70;;;5.90;;
57317;SDS011;43157;50.982;18.132;2022-08-19T13:30:16;12.90;;;5.80;;
57317;SDS011;43157;50.982;18.132;2022-08-19T13:33:03;16.60;;;6.30;;
57317;SDS011;43157;50.982;18.132;2022-08-19T13:35:46;15.20;;;5.30;;
57317;SDS011;43157;50.982;18.132;2022-08-19T13:38:15;12.60;;;5.90;;
57317;SDS011;43157;50.982;18.132;2022-08-19T13:40:42;15.00;;;5.80;;
57317;SDS011;43157;50.982;18.132;2022-08-19T13:43:08;14.20;;;5.90;;
57317;SDS011;43157;50.982;18.132;2022-08-19T13:45:34;15.90;;;5.60;;
57317;SDS011;43157;50.982;18.132;2022-08-19T13:48:01;15.80;;;5.40;;
57317;SDS011;43157;50.982;18.132;2022-08-19T13:50:32;12.70;;;5.50;;
57317;SDS011;43157;50.982;18.132;2022-08-19T13:52:59;16.30;;;5.30;;
57317;SDS011;43157;50.982;18.132;2022-08-19T13:55:25;13.40;;;5.50;;
57317;SDS011;43157;50.982;18.132;2022-08-19T13:57:52;14.30;;;5.50;;
57317;SDS011;43157;50.982;18.132;2022-08-19T14:00:20;16.70;;;5.60;;
57317;SDS011;43157;50.982;18.132;2022-08-19T14:02:49;18.60;;;6.00;;
57317;SDS011;43157;50.982;18.132;2022-08-19T14:05:17;17.70;;;6.10;;
57317;SDS011;43157;50.982;18.132;2022-08-19T14:07:43;11.40;;;5.90;;
57317;SDS011;43157;50.982;18.132;2022-08-19T14:10:10;15.60;;;5.30;;
57317;SDS011;43157;50.982;18.132;2022-08-19T14:12:36;16.50;;;5.10;;
57317;SDS011;43157;50.982;18.132;2022-08-19T14:15:02;13.70;;;5.90;;
57317;SDS011;43157;50.982;18.132;2022-08-19T14:17:29;13.80;;;4.90;;
57317;SDS011;43157;50.982;18.132;2022-08-19T14:19:58;14.80;;;5.30;;
57317;SDS011;43157;50.982;18.132;2022-08-19T14:22:26;16.70;;;5.40;;
57317;SDS011;43157;50.982;18.132;2022-08-19T14:24:51;11.60;;;5.30;;
57317;SDS011;43157;50.982;18.132;2022-08-19T14:27:17;12.30;;;5.20;;
57317;SDS011;43157;50.982;18.132;2022-08-19T14:29:42;15.10;;;5.80;;
57317;SDS011;43157;50.982;18.132;2022-08-19T14:32:09;12.00;;;6.00;;
57317;SDS011;43157;50.982;18.132;2022-08-19T14:34:34;13.90;;;5.60;;
57317;SDS011;43157;50.982;18.132;2022-08-19T14:37:02;17.40;;;6.40;;
57317;SDS011;43157;50.982;18.132;2022-08-19T14:39:28;12.30;;;5.80;;
57317;SDS011;43157;50.982;18.132;2022-08-19T14:41:53;18.30;;;6.40;;
57317;SDS011;43157;50.982;18.132;2022-08-19T14:44:19;18.40;;;6.80;;